| time (UTC) | temp C | wind direction | speed KPH | gust KPH | rain 1hr cm | rain 24hr cm | rain mn cm | humidity % | barometer mb |
| 20260509212810 | 22 | 19 | 3.2 | 3.2 | 0.00 | 0.00 | 0.00 | 43 | 1007.6 |
| 20260509212307 | 22 | 19 | 3.2 | 3.2 | 0.00 | 0.00 | 0.00 | 43 | 1007.5 |
| 20260509211803 | 22 | 19 | 3.2 | 3.2 | 0.00 | 0.00 | 0.00 | 43 | 1007.6 |
| 20260509211259 | 22 | 19 | 3.2 | 3.2 | 0.00 | 0.00 | 0.00 | 43 | 1007.9 |
| 20260509210756 | 23 | 0 | 3.2 | 3.2 | 0.00 | 0.00 | 0.00 | 44 | 1007.7 |
| 20260509210254 | 23 | 0 | 3.2 | 3.2 | 0.00 | 0.00 | 0.00 | 44 | 1007.7 |
| 20260509205753 | 23 | 104 | 6.4 | 6.4 | 0.00 | 0.00 | 0.00 | 42 | 1007.7 |
| 20260509205248 | 23 | 11 | 6.4 | 6.4 | 0.00 | 0.00 | 0.00 | 43 | 1007.7 |
| 20260509204744 | 22 | 250 | 0.0 | 3.2 | 0.00 | 0.00 | 0.00 | 43 | 1007.6 |
| 20260509204240 | 22 | 250 | 0.0 | 3.2 | 0.00 | 0.00 | 0.00 | 43 | 1007.7 |
| 20260509203737 | 22 | 250 | 0.0 | 3.2 | 0.00 | 0.00 | 0.00 | 43 | 1007.8 |
| 20260509203235 | 23 | 325 | 3.2 | 3.2 | 0.00 | 0.00 | 0.00 | 41 | 1007.8 |
| 20260509202730 | 23 | 337 | 4.8 | 4.8 | 0.00 | 0.00 | 0.00 | 43 | 1007.8 |
| 20260509202226 | 22 | 144 | 0.0 | 3.2 | 0.00 | 0.00 | 0.00 | 43 | 1007.7 |
| 20260509201721 | 22 | 346 | 3.2 | 3.2 | 0.00 | 0.00 | 0.00 | 43 | 1007.9 |
| 20260509201218 | 23 | 91 | 4.8 | 4.8 | 0.00 | 0.00 | 0.00 | 43 | 1007.9 |
| 20260509200714 | 23 | 165 | 3.2 | 4.8 | 0.00 | 0.00 | 0.00 | 48 | 1008.0 |
| 20260509200209 | 23 | 165 | 3.2 | 4.8 | 0.00 | 0.00 | 0.00 | 48 | 1008.1 |
| 20260509195705 | 23 | 165 | 3.2 | 4.8 | 0.00 | 0.00 | 0.00 | 48 | 1008.1 |
| 20260509195201 | 22 | 251 | 1.6 | 3.2 | 0.00 | 0.00 | 0.00 | 46 | 1007.8 |
| 20260509194701 | 22 | 145 | 4.8 | 4.8 | 0.00 | 0.00 | 0.00 | 44 | 1007.9 |
| 20260509194158 | 22 | 11 | 3.2 | 4.8 | 0.00 | 0.00 | 0.00 | 46 | 1008.0 |
| 20260509193654 | 22 | 11 | 3.2 | 6.4 | 0.00 | 0.00 | 0.00 | 46 | 1008.0 |
| 20260509193149 | 22 | 123 | 8.0 | 9.7 | 0.00 | 0.00 | 0.00 | 44 | 1008.0 |
| 20260509192646 | 22 | 252 | 6.4 | 8.0 | 0.00 | 0.00 | 0.00 | 46 | 1008.2 |
| 20260509192141 | 22 | 278 | 3.2 | 3.2 | 0.00 | 0.00 | 0.00 | 44 | 1008.1 |
| 20260509191641 | 22 | 259 | 3.2 | 4.8 | 0.00 | 0.00 | 0.00 | 47 | 1008.2 |
| 20260509191138 | 21 | 214 | 3.2 | 4.8 | 0.00 | 0.00 | 0.00 | 45 | 1008.2 |
| 20260509190634 | 21 | 214 | 3.2 | 4.8 | 0.00 | 0.00 | 0.00 | 45 | 1008.3 |
| 20260509190132 | 22 | 136 | 9.7 | 9.7 | 0.00 | 0.00 | 0.00 | 47 | 1008.6 |
| 20260509185630 | 21 | 101 | 8.0 | 8.0 | 0.00 | 0.00 | 0.00 | 46 | 1008.4 |
| 20260509185125 | 21 | 101 | 8.0 | 8.0 | 0.00 | 0.00 | 0.00 | 46 | 1008.4 |
| 20260509184624 | 21 | 101 | 8.0 | 8.0 | 0.00 | 0.00 | 0.00 | 46 | 1008.6 |
| 20260509184120 | 21 | 101 | 8.0 | 8.0 | 0.00 | 0.00 | 0.00 | 46 | 1008.8 |
| 20260509183616 | 21 | 101 | 8.0 | 8.0 | 0.00 | 0.00 | 0.00 | 46 | 1008.9 |
| 20260509183112 | 21 | 86 | 3.2 | 6.4 | 0.00 | 0.00 | 0.00 | 46 | 1008.8 |
| 20260509182608 | 21 | 97 | 4.8 | 6.4 | 0.00 | 0.00 | 0.00 | 45 | 1008.4 |
| 20260509182105 | 21 | 134 | 0.0 | 3.2 | 0.00 | 0.00 | 0.00 | 47 | 1008.6 |
| 20260509181603 | 22 | 63 | 4.8 | 6.4 | 0.00 | 0.00 | 0.00 | 45 | 1008.8 |
| 20260509181100 | 22 | 63 | 4.8 | 6.4 | 0.00 | 0.00 | 0.00 | 45 | 1009.0 |
| 20260509180556 | 22 | 63 | 4.8 | 6.4 | 0.00 | 0.00 | 0.00 | 45 | 1009.2 |
| 20260509180054 | 21 | 317 | 3.2 | 3.2 | 0.00 | 0.00 | 0.00 | 52 | 1009.1 |
| 20260509175548 | 20 | 297 | 3.2 | 3.2 | 0.00 | 0.00 | 0.00 | 48 | 1009.6 |
| 20260509175046 | 20 | 157 | 3.2 | 3.2 | 0.00 | 0.00 | 0.00 | 46 | 1009.3 |
| 20260509174543 | 20 | 182 | 1.6 | 4.8 | 0.00 | 0.00 | 0.00 | 46 | 1009.4 |
| 20260509174038 | 20 | 185 | 0.0 | 1.6 | 0.00 | 0.00 | 0.00 | 47 | 1009.4 |
| 20260509173538 | 20 | 340 | 3.2 | 3.2 | 0.00 | 0.00 | 0.00 | 47 | 1009.8 |
| 20260509173034 | 20 | 306 | 0.0 | 3.2 | 0.00 | 0.00 | 0.00 | 48 | 1009.9 |
| 20260509172532 | 19 | 262 | 3.2 | 3.2 | 0.00 | 0.00 | 0.00 | 47 | 1010.0 |
| 20260509172027 | 19 | 61 | 0.0 | 0.0 | 0.00 | 0.00 | 0.00 | 46 | 1009.9 |
| 20260509171523 | 19 | 249 | 4.8 | 4.8 | 0.00 | 0.00 | 0.00 | 45 | 1010.0 |
| 20260509171020 | 19 | 158 | 0.0 | 4.8 | 0.00 | 0.00 | 0.00 | 46 | 1010.2 |
| 20260509170515 | 19 | 99 | 6.4 | 6.4 | 0.00 | 0.00 | 0.00 | 44 | 1010.3 |
| 20260509170012 | 20 | 128 | 6.4 | 6.4 | 0.00 | 0.00 | 0.00 | 43 | 1010.2 |
| 20260509165510 | 20 | 102 | 9.7 | 11.3 | 0.00 | 0.00 | 0.00 | 42 | 1010.2 |
| 20260509165006 | 20 | 354 | 3.2 | 3.2 | 0.00 | 0.00 | 0.00 | 46 | 1010.2 |
| 20260509164502 | 20 | 33 | 3.2 | 6.4 | 0.00 | 0.00 | 0.00 | 42 | 1010.2 |
| 20260509163958 | 20 | 304 | 3.2 | 3.2 | 0.00 | 0.00 | 0.00 | 43 | 1010.2 |
| 20260509163456 | 20 | 299 | 1.6 | 3.2 | 0.00 | 0.00 | 0.00 | 44 | 1010.2 |
| 20260509162954 | 19 | 12 | 0.0 | 0.0 | 0.00 | 0.00 | 0.00 | 46 | 1010.2 |
| 20260509162454 | 18 | 1 | 4.8 | 4.8 | 0.00 | 0.00 | 0.00 | 45 | 1010.0 |
| 20260509161949 | 19 | 29 | 1.6 | 4.8 | 0.00 | 0.00 | 0.00 | 44 | 1009.9 |
| 20260509161446 | 20 | 23 | 6.4 | 8.0 | 0.00 | 0.00 | 0.00 | 47 | 1010.0 |
| 20260509160941 | 19 | 40 | 3.2 | 3.2 | 0.00 | 0.00 | 0.00 | 47 | 1010.0 |
| 20260509160438 | 19 | 47 | 3.2 | 3.2 | 0.00 | 0.00 | 0.00 | 44 | 1010.2 |
| 20260509155932 | 20 | 105 | 9.7 | 9.7 | 0.00 | 0.00 | 0.00 | 44 | 1010.0 |
| 20260509155429 | 20 | 103 | 3.2 | 8.0 | 0.00 | 0.00 | 0.00 | 44 | 1010.0 |
| 20260509154926 | 19 | 72 | 0.0 | 3.2 | 0.00 | 0.00 | 0.00 | 47 | 1010.2 |
| 20260509154422 | 18 | 6 | 6.4 | 8.0 | 0.00 | 0.00 | 0.00 | 45 | 1010.0 |
| 20260509153920 | 18 | 6 | 6.4 | 8.0 | 0.00 | 0.00 | 0.00 | 45 | 1010.1 |
| 20260509153416 | 18 | 311 | 1.6 | 3.2 | 0.00 | 0.00 | 0.00 | 47 | 1010.3 |
| 20260509152913 | 18 | 258 | 3.2 | 6.4 | 0.00 | 0.00 | 0.00 | 48 | 1010.2 |
| 20260509152409 | 18 | 258 | 3.2 | 6.4 | 0.00 | 0.00 | 0.00 | 48 | 1010.4 |
| 20260509151907 | 18 | 162 | 1.6 | 3.2 | 0.00 | 0.00 | 0.00 | 48 | 1010.6 |
| 20260509151402 | 17 | 3 | 3.2 | 3.2 | 0.00 | 0.00 | 0.00 | 54 | 1010.4 |
| 20260509150901 | 17 | 284 | 4.8 | 4.8 | 0.00 | 0.00 | 0.00 | 48 | 1010.3 |
| 20260509150358 | 16 | 96 | 4.8 | 4.8 | 0.00 | 0.00 | 0.00 | 50 | 1010.3 |
| 20260509145856 | 16 | 96 | 4.8 | 4.8 | 0.00 | 0.00 | 0.00 | 50 | 1010.5 |
| 20260509145350 | 16 | 96 | 4.8 | 4.8 | 0.00 | 0.00 | 0.00 | 50 | 1010.6 |
| 20260509144847 | 17 | 122 | 3.2 | 3.2 | 0.00 | 0.00 | 0.00 | 50 | 1010.4 |
| 20260509144344 | 17 | 44 | 0.0 | 0.0 | 0.00 | 0.00 | 0.00 | 54 | 1010.9 |
| 20260509143841 | 16 | 100 | 4.8 | 4.8 | 0.00 | 0.00 | 0.00 | 53 | 1010.7 |
| 20260509143338 | 16 | 288 | 3.2 | 6.4 | 0.00 | 0.00 | 0.00 | 55 | 1010.6 |
| 20260509142834 | 16 | 231 | 4.8 | 6.4 | 0.00 | 0.00 | 0.00 | 55 | 1010.9 |
| 20260509142330 | 16 | 14 | 0.0 | 1.6 | 0.00 | 0.00 | 0.00 | 54 | 1010.9 |
| 20260509141826 | 16 | 262 | 3.2 | 4.8 | 0.00 | 0.00 | 0.00 | 54 | 1010.7 |
| 20260509141328 | 16 | 173 | 1.6 | 3.2 | 0.00 | 0.00 | 0.00 | 54 | 1010.9 |
| 20260509140820 | 16 | 199 | 1.6 | 3.2 | 0.00 | 0.00 | 0.00 | 53 | 1011.0 |
| 20260509140317 | 15 | 208 | 0.0 | 4.8 | 0.00 | 0.00 | 0.00 | 54 | 1011.1 |
| 20260509135815 | 16 | 207 | 0.0 | 1.6 | 0.00 | 0.00 | 0.00 | 58 | 1010.9 |
| 20260509135312 | 15 | 275 | 3.2 | 3.2 | 0.00 | 0.00 | 0.00 | 55 | 1010.8 |
| 20260509134809 | 14 | 200 | 0.0 | 0.0 | 0.00 | 0.00 | 0.00 | 58 | 1010.8 |
| 20260509134307 | 14 | 200 | 0.0 | 0.0 | 0.00 | 0.00 | 0.00 | 58 | 1010.8 |
| 20260509133804 | 14 | 200 | 0.0 | 0.0 | 0.00 | 0.00 | 0.00 | 58 | 1010.7 |
| 20260509133300 | 14 | 200 | 0.0 | 0.0 | 0.00 | 0.00 | 0.00 | 58 | 1010.7 |
| 20260509132759 | 14 | 200 | 0.0 | 0.0 | 0.00 | 0.00 | 0.00 | 58 | 1010.8 |
| 20260509132257 | 14 | 139 | 0.0 | 1.6 | 0.00 | 0.00 | 0.00 | 66 | 1010.6 |
| 20260509131753 | 14 | 76 | 0.0 | 0.0 | 0.00 | 0.00 | 0.00 | 68 | 1010.7 |
| 20260509131250 | 14 | 76 | 0.0 | 0.0 | 0.00 | 0.00 | 0.00 | 68 | 1011.0 |
| 20260509130746 | 14 | 76 | 0.0 | 0.0 | 0.00 | 0.00 | 0.00 | 68 | 1011.0 |
| 20260509130242 | 14 | 34 | 3.2 | 3.2 | 0.00 | 0.00 | 0.00 | 67 | 1011.0 |
| 20260509125739 | 14 | 60 | 0.0 | 0.0 | 0.00 | 0.00 | 0.00 | 65 | 1011.0 |
| 20260509125236 | 13 | 288 | 1.6 | 1.6 | 0.00 | 0.00 | 0.00 | 67 | 1010.9 |
| 20260509124732 | 13 | 158 | 0.0 | 0.0 | 0.00 | 0.00 | 0.00 | 72 | 1011.0 |
| 20260509124229 | 13 | 189 | 0.0 | 1.6 | 0.00 | 0.00 | 0.00 | 71 | 1011.0 |
| 20260509123727 | 13 | 30 | 0.0 | 1.6 | 0.00 | 0.00 | 0.00 | 67 | 1011.1 |
| 20260509123224 | 13 | 218 | 0.0 | 0.0 | 0.00 | 0.00 | 0.00 | 71 | 1010.8 |
| 20260509122719 | 13 | 350 | 0.0 | 1.6 | 0.00 | 0.00 | 0.00 | 70 | 1010.9 |
| 20260509122216 | 13 | 195 | 0.0 | 0.0 | 0.00 | 0.00 | 0.00 | 67 | 1010.9 |
| 20260509121713 | 13 | 218 | 0.0 | 0.0 | 0.00 | 0.00 | 0.00 | 68 | 1011.1 |
| 20260509121211 | 13 | 227 | 0.0 | 0.0 | 0.00 | 0.00 | 0.00 | 68 | 1010.8 |
| 20260509120709 | 13 | 342 | 0.0 | 3.2 | 0.00 | 0.00 | 0.00 | 65 | 1010.9 |
| 20260509120206 | 12 | 261 | 0.0 | 1.6 | 0.00 | 0.00 | 0.00 | 68 | 1011.0 |
| 20260509115704 | 12 | 342 | 0.0 | 1.6 | 0.00 | 0.00 | 0.00 | 71 | 1010.8 |
| 20260509115201 | 13 | 163 | 1.6 | 1.6 | 0.00 | 0.00 | 0.00 | 68 | 1010.7 |
| 20260509114659 | 12 | 14 | 0.0 | 1.6 | 0.00 | 0.00 | 0.00 | 62 | 1010.8 |
| 20260509114158 | 12 | 18 | 1.6 | 3.2 | 0.00 | 0.00 | 0.00 | 62 | 1010.7 |
| 20260509113656 | 12 | 15 | 1.6 | 1.6 | 0.00 | 0.00 | 0.00 | 63 | 1010.5 |
| 20260509113153 | 12 | 89 | 0.0 | 0.0 | 0.00 | 0.00 | 0.00 | 62 | 1010.5 |
| 20260509112649 | 12 | 62 | 0.0 | 0.0 | 0.00 | 0.00 | 0.00 | 61 | 1010.5 |
| 20260509112147 | 12 | 169 | 0.0 | 0.0 | 0.00 | 0.00 | 0.00 | 60 | 1010.3 |
| 20260509111644 | 12 | 169 | 0.0 | 0.0 | 0.00 | 0.00 | 0.00 | 60 | 1010.1 |
| 20260509111140 | 12 | 142 | 0.0 | 1.6 | 0.00 | 0.00 | 0.00 | 64 | 1010.2 |
| 20260509110638 | 13 | 169 | 0.0 | 0.0 | 0.00 | 0.00 | 0.00 | 60 | 1010.1 |
| 20260509110135 | 13 | 4 | 0.0 | 0.0 | 0.00 | 0.00 | 0.00 | 58 | 1010.1 |
| 20260509105633 | 13 | 355 | 0.0 | 3.2 | 0.00 | 0.00 | 0.00 | 57 | 1010.1 |
| 20260509105130 | 13 | 319 | 0.0 | 3.2 | 0.00 | 0.00 | 0.00 | 58 | 1010.1 |
| 20260509104627 | 12 | 11 | 0.0 | 0.0 | 0.00 | 0.00 | 0.00 | 60 | 1010.3 |
| 20260509104123 | 12 | 338 | 0.0 | 0.0 | 0.00 | 0.00 | 0.00 | 61 | 1010.2 |
| 20260509103621 | 12 | 6 | 0.0 | 0.0 | 0.00 | 0.00 | 0.00 | 66 | 1010.2 |
| 20260509103119 | 12 | 162 | 3.2 | 3.2 | 0.00 | 0.00 | 0.00 | 65 | 1010.2 |
| 20260509102616 | -17 | 0.0 | 0.0 | 0.00 | 0.00 | 0.00 | 1010.2 | ||
| 20260509102113 | -17 | 0.0 | 0.0 | 0.00 | 0.00 | 0.00 | 1010.3 | ||
| 20260509101609 | -17 | 0.0 | 0.0 | 0.00 | 0.00 | 0.00 | 1010.4 | ||
| 20260509101106 | -17 | 0.0 | 0.0 | 0.00 | 0.00 | 0.00 | 1010.3 | ||
| 20260509100603 | -17 | 0.0 | 0.0 | 0.00 | 0.00 | 0.00 | 1010.2 | ||
| 20260509100101 | -17 | 0.0 | 0.0 | 0.00 | 0.00 | 0.00 | 1010.3 | ||
| 20260509095557 | -17 | 0.0 | 0.0 | 0.00 | 0.00 | 0.00 | 1010.1 | ||
| 20260509095055 | -17 | 0.0 | 0.0 | 0.00 | 0.00 | 0.00 | 1010.3 | ||
| 20260509094551 | -17 | 0.0 | 0.0 | 0.00 | 0.00 | 0.00 | 1010.1 | ||
| 20260509094048 | -17 | 0.0 | 0.0 | 0.00 | 0.00 | 0.00 | 1010.2 | ||
| 20260509093547 | -17 | 0.0 | 0.0 | 0.00 | 0.00 | 0.00 | 1010.4 | ||
| 20260509093044 | -17 | 0.0 | 0.0 | 0.00 | 0.00 | 0.00 | 1010.3 | ||
| 20260509092541 | -17 | 0.0 | 0.0 | 0.00 | 0.00 | 0.00 | 1010.2 | ||
| 20260509092040 | -17 | 0.0 | 0.0 | 0.00 | 0.00 | 0.00 | 1010.2 | ||
| 20260509091537 | -17 | 0.0 | 0.0 | 0.00 | 0.00 | 0.00 | 1010.3 | ||
| 20260509091033 | -17 | 0.0 | 0.0 | 0.00 | 0.00 | 0.00 | 1010.4 | ||
| 20260509090531 | -17 | 0.0 | 0.0 | 0.00 | 0.00 | 0.00 | 1010.3 | ||
| 20260509090029 | -17 | 0.0 | 0.0 | 0.00 | 0.00 | 0.00 | 1010.3 | ||
| 20260509085525 | -17 | 0.0 | 0.0 | 0.00 | 0.00 | 0.00 | 1010.3 | ||
| 20260509085021 | -17 | 0.0 | 0.0 | 0.00 | 0.00 | 0.00 | 1010.5 | ||
| 20260509084519 | -17 | 0.0 | 0.0 | 0.00 | 0.00 | 0.00 | 1010.5 | ||
| 20260509084016 | -17 | 0.0 | 0.0 | 0.00 | 0.00 | 0.00 | 1010.4 | ||
| 20260509083513 | -17 | 0.0 | 0.0 | 0.00 | 0.00 | 0.00 | 1010.4 | ||
| 20260509083009 | -17 | 0.0 | 0.0 | 0.00 | 0.00 | 0.00 | 1010.2 | ||
| 20260509082507 | -17 | 0.0 | 0.0 | 0.00 | 0.00 | 0.00 | 1010.4 | ||
| 20260509082004 | -17 | 0.0 | 0.0 | 0.00 | 0.00 | 0.00 | 1010.6 | ||
| 20260509081501 | -17 | 0.0 | 0.0 | 0.00 | 0.00 | 0.00 | 1010.4 | ||
| 20260509080958 | -17 | 0.0 | 0.0 | 0.00 | 0.00 | 0.00 | 1010.5 | ||
| 20260509080456 | -17 | 0.0 | 0.0 | 0.00 | 0.00 | 0.00 | 1010.6 | ||
| 20260509075954 | -17 | 0.0 | 0.0 | 0.00 | 0.00 | 0.00 | 1010.6 | ||
| 20260509075451 | -17 | 0.0 | 0.0 | 0.00 | 0.00 | 0.00 | 1010.5 | ||
| 20260509074949 | -17 | 0.0 | 0.0 | 0.00 | 0.00 | 0.00 | 1010.5 | ||
| 20260509074446 | -17 | 0.0 | 0.0 | 0.00 | 0.00 | 0.00 | 1010.7 | ||
| 20260509073942 | -17 | 0.0 | 0.0 | 0.00 | 0.00 | 0.00 | 1010.7 | ||
| 20260509073438 | -17 | 0.0 | 0.0 | 0.00 | 0.00 | 0.00 | 1010.6 | ||
| 20260509072935 | -17 | 0.0 | 0.0 | 0.00 | 0.00 | 0.00 | 1010.6 | ||
| 20260509072432 | -17 | 0.0 | 0.0 | 0.00 | 0.00 | 0.00 | 1010.6 | ||
| 20260509071929 | -17 | 0.0 | 0.0 | 0.00 | 0.00 | 0.00 | 1010.7 | ||
| 20260509071425 | -17 | 0.0 | 0.0 | 0.00 | 0.00 | 0.00 | 1010.5 | ||
| 20260509070923 | -17 | 0.0 | 0.0 | 0.00 | 0.00 | 0.00 | 1010.4 | ||
| 20260509070420 | -17 | 0.0 | 0.0 | 0.00 | 0.00 | 0.00 | 1010.7 | ||
| 20260509065915 | -17 | 0.0 | 0.0 | 0.00 | 0.00 | 0.00 | 1010.6 | ||
| 20260509065411 | -17 | 0.0 | 0.0 | 0.00 | 0.00 | 0.00 | 1010.7 | ||
| 20260509064908 | -17 | 0.0 | 0.0 | 0.00 | 0.00 | 0.00 | 1010.7 | ||
| 20260509064406 | -17 | 0.0 | 0.0 | 0.00 | 0.00 | 0.00 | 1010.8 | ||
| 20260509063903 | -17 | 0.0 | 0.0 | 0.00 | 0.00 | 0.00 | 1010.7 | ||
| 20260509063359 | -17 | 0.0 | 0.0 | 0.00 | 0.00 | 0.00 | 1010.9 | ||
| 20260509062856 | -17 | 0.0 | 0.0 | 0.00 | 0.00 | 0.00 | 1011.0 | ||
| 20260509062353 | -17 | 0.0 | 0.0 | 0.00 | 0.00 | 0.00 | 1010.9 | ||
| 20260509061850 | -17 | 0.0 | 0.0 | 0.00 | 0.00 | 0.00 | 1011.2 | ||
| 20260509061349 | -17 | 0.0 | 0.0 | 0.00 | 0.00 | 0.00 | 1011.1 | ||
| 20260509060845 | -17 | 0.0 | 0.0 | 0.00 | 0.00 | 0.00 | 1011.0 | ||
| 20260509060342 | -17 | 0.0 | 0.0 | 0.00 | 0.00 | 0.00 | 1010.9 | ||
| 20260509055837 | -17 | 0.0 | 0.0 | 0.00 | 0.00 | 0.00 | 1010.9 | ||
| 20260509055333 | -17 | 0.0 | 0.0 | 0.00 | 0.00 | 0.00 | 1011.1 | ||
| 20260509054830 | -17 | 0.0 | 0.0 | 0.00 | 0.00 | 0.00 | 1011.2 | ||
| 20260509054327 | -17 | 0.0 | 0.0 | 0.00 | 0.00 | 0.00 | 1011.4 | ||
| 20260509053825 | -17 | 0.0 | 0.0 | 0.00 | 0.00 | 0.00 | 1011.2 | ||
| 20260509053322 | -17 | 0.0 | 0.0 | 0.00 | 0.00 | 0.00 | 1011.2 | ||
| 20260509052820 | -17 | 0.0 | 0.0 | 0.00 | 0.00 | 0.00 | 1011.4 | ||
| 20260509052317 | -17 | 0.0 | 0.0 | 0.00 | 0.00 | 0.00 | 1011.3 | ||
| 20260509051815 | -17 | 0.0 | 0.0 | 0.00 | 0.00 | 0.00 | 1011.3 | ||
| 20260509051313 | -17 | 0.0 | 0.0 | 0.00 | 0.00 | 0.00 | 1011.3 | ||
| 20260509050809 | -17 | 0.0 | 0.0 | 0.00 | 0.00 | 0.00 | 1011.4 | ||
| 20260509050306 | -17 | 0.0 | 0.0 | 0.00 | 0.00 | 0.00 | 1011.3 | ||
| 20260509045803 | -17 | 0.0 | 0.0 | 0.00 | 0.00 | 0.00 | 1011.4 | ||
| 20260509045300 | -17 | 0.0 | 0.0 | 0.00 | 0.00 | 0.00 | 1011.3 | ||
| 20260509044757 | -17 | 0.0 | 0.0 | 0.00 | 0.00 | 0.00 | 1011.2 | ||
| 20260509044255 | -17 | 0.0 | 0.0 | 0.00 | 0.00 | 0.00 | 1011.2 | ||
| 20260509043751 | -17 | 0.0 | 0.0 | 0.00 | 0.00 | 0.00 | 1011.3 | ||
| 20260509043247 | -17 | 0.0 | 0.0 | 0.00 | 0.00 | 0.00 | 1011.3 | ||
| 20260509042743 | -17 | 0.0 | 0.0 | 0.00 | 0.00 | 0.00 | 1011.2 | ||
| 20260509042240 | -17 | 0.0 | 0.0 | 0.00 | 0.00 | 0.00 | 1011.4 | ||
| 20260509041736 | -17 | 0.0 | 0.0 | 0.00 | 0.00 | 0.00 | 1011.4 | ||
| 20260509041233 | -17 | 0.0 | 0.0 | 0.00 | 0.00 | 0.00 | 1011.3 | ||
| 20260509040732 | -17 | 0.0 | 0.0 | 0.00 | 0.00 | 0.00 | 1011.4 | ||
| 20260509040228 | -17 | 0.0 | 0.0 | 0.00 | 0.00 | 0.00 | 1011.4 | ||
| 20260509035725 | -17 | 0.0 | 0.0 | 0.00 | 0.00 | 0.00 | 1011.5 | ||
| 20260509035222 | -17 | 0.0 | 0.0 | 0.00 | 0.00 | 0.00 | 1011.3 | ||
| 20260509034719 | -17 | 0.0 | 0.0 | 0.00 | 0.00 | 0.00 | 1011.3 | ||
| 20260509034217 | -17 | 0.0 | 0.0 | 0.00 | 0.00 | 0.00 | 1011.2 | ||
| 20260509033714 | -17 | 0.0 | 0.0 | 0.00 | 0.00 | 0.00 | 1011.3 | ||
| 20260509033211 | -17 | 0.0 | 0.0 | 0.00 | 0.00 | 0.00 | 1011.5 | ||
| 20260509032708 | -17 | 0.0 | 0.0 | 0.00 | 0.00 | 0.00 | 1011.3 | ||
| 20260509032205 | -17 | 0.0 | 0.0 | 0.00 | 0.00 | 0.00 | 1011.4 | ||
| 20260509031702 | -17 | 0.0 | 0.0 | 0.00 | 0.00 | 0.00 | 1011.5 | ||
| 20260509031159 | -17 | 0.0 | 0.0 | 0.00 | 0.00 | 0.00 | 1011.5 | ||
| 20260509030658 | -17 | 0.0 | 0.0 | 0.00 | 0.00 | 0.00 | 1011.5 | ||
| 20260509030155 | 11 | 269 | 0.0 | 0.0 | 0.00 | 0.03 | 0.03 | 65 | 1011.6 |
| 20260509025650 | 11 | 269 | 0.0 | 0.0 | 0.00 | 0.03 | 0.03 | 65 | 1011.6 |
| 20260509025147 | 11 | 269 | 0.0 | 0.0 | 0.00 | 0.03 | 0.03 | 65 | 1011.7 |
| 20260509024642 | 11 | 269 | 0.0 | 0.0 | 0.00 | 0.03 | 0.03 | 65 | 1011.8 |
| 20260509024138 | 11 | 269 | 0.0 | 0.0 | 0.00 | 0.03 | 0.03 | 65 | 1011.5 |
| 20260509023636 | 11 | 269 | 0.0 | 0.0 | 0.00 | 0.03 | 0.03 | 65 | 1011.7 |
| 20260509023133 | 11 | 269 | 0.0 | 0.0 | 0.00 | 0.03 | 0.03 | 65 | 1011.8 |
| 20260509022629 | 11 | 269 | 0.0 | 0.0 | 0.00 | 0.03 | 0.03 | 65 | 1011.6 |
| 20260509022127 | 11 | 269 | 0.0 | 0.0 | 0.00 | 0.03 | 0.03 | 65 | 1011.7 |
| 20260509021624 | 11 | 269 | 0.0 | 0.0 | 0.00 | 0.03 | 0.03 | 65 | 1011.8 |
| 20260509021121 | 11 | 269 | 0.0 | 0.0 | 0.00 | 0.03 | 0.03 | 65 | 1011.6 |
| 20260509020619 | 11 | 269 | 0.0 | 0.0 | 0.00 | 0.03 | 0.03 | 65 | 1011.7 |
| 20260509020115 | 14 | 166 | 0.0 | 0.0 | 0.00 | 0.03 | 0.03 | 52 | 1011.5 |
| 20260509015615 | 14 | 166 | 0.0 | 0.0 | 0.00 | 0.03 | 0.03 | 52 | 1011.6 |
| 20260509015112 | 14 | 166 | 0.0 | 0.0 | 0.00 | 0.03 | 0.03 | 52 | 1011.4 |
| 20260509014608 | 14 | 166 | 0.0 | 0.0 | 0.00 | 0.03 | 0.03 | 52 | 1011.6 |
| 20260509014105 | 14 | 166 | 0.0 | 0.0 | 0.00 | 0.03 | 0.03 | 52 | 1011.4 |
| 20260509013602 | 14 | 166 | 0.0 | 0.0 | 0.00 | 0.03 | 0.03 | 52 | 1011.4 |
| 20260509013057 | 14 | 166 | 0.0 | 0.0 | 0.00 | 0.03 | 0.03 | 52 | 1011.4 |
| 20260509012554 | 14 | 166 | 0.0 | 0.0 | 0.00 | 0.03 | 0.03 | 52 | 1011.5 |
| 20260509012051 | 14 | 166 | 0.0 | 0.0 | 0.00 | 0.03 | 0.03 | 52 | 1011.5 |
| 20260509011549 | 14 | 166 | 0.0 | 0.0 | 0.00 | 0.03 | 0.03 | 52 | 1011.6 |
| 20260509011046 | 14 | 166 | 0.0 | 0.0 | 0.00 | 0.03 | 0.03 | 52 | 1011.4 |
| 20260509010544 | 16 | 348 | 1.6 | 1.6 | 0.00 | 0.03 | 0.03 | 46 | 1011.3 |
| 20260509010040 | 16 | 348 | 1.6 | 1.6 | 0.00 | 0.03 | 0.03 | 46 | 1011.3 |
| 20260509005538 | 16 | 348 | 1.6 | 1.6 | 0.00 | 0.03 | 0.03 | 46 | 1011.3 |
| 20260509005038 | 16 | 348 | 1.6 | 1.6 | 0.00 | 0.03 | 0.03 | 46 | 1011.1 |
| 20260509004535 | 16 | 348 | 1.6 | 1.6 | 0.00 | 0.03 | 0.03 | 46 | 1011.3 |
| 20260509004032 | 16 | 348 | 1.6 | 1.6 | 0.00 | 0.03 | 0.03 | 46 | 1011.3 |
| 20260509003530 | 17 | 232 | 0.0 | 0.0 | 0.00 | 0.03 | 0.03 | 46 | 1011.0 |
| 20260509003027 | 17 | 232 | 0.0 | 0.0 | 0.00 | 0.03 | 0.03 | 46 | 1011.1 |
| 20260509002525 | 17 | 47 | 0.0 | 0.0 | 0.00 | 0.03 | 0.03 | 48 | 1011.1 |
| 20260509002022 | 17 | 358 | 0.0 | 0.0 | 0.00 | 0.03 | 0.03 | 48 | 1011.2 |
| 20260509001519 | 17 | 272 | 0.0 | 1.6 | 0.00 | 0.03 | 0.03 | 44 | 1011.0 |
| 20260509001015 | 17 | 272 | 0.0 | 1.6 | 0.00 | 0.03 | 0.03 | 44 | 1011.1 |
| 20260509000514 | 17 | 85 | 0.0 | 0.0 | 0.00 | 0.03 | 0.03 | 46 | 1010.9 |
| 20260509000009 | 17 | 312 | 0.0 | 1.6 | 0.00 | 0.03 | 0.03 | 44 | 1011.1 |
| 20260508235507 | 18 | 62 | 0.0 | 3.2 | 0.00 | 0.03 | 0.03 | 44 | 1010.8 |
| 20260508235003 | 18 | 168 | 0.0 | 1.6 | 0.00 | 0.03 | 0.03 | 44 | 1010.8 |
| 20260508234500 | 18 | 207 | 0.0 | 1.6 | 0.00 | 0.03 | 0.03 | 44 | 1010.8 |
| 20260508233958 | 19 | 343 | 0.0 | 0.0 | 0.00 | 0.03 | 0.03 | 42 | 1010.6 |
| 20260508233457 | 19 | 343 | 0.0 | 0.0 | 0.00 | 0.03 | 0.03 | 40 | 1010.6 |
| 20260508232954 | 20 | 164 | 0.0 | 3.2 | 0.00 | 0.03 | 0.03 | 36 | 1010.7 |
| 20260508232451 | 20 | 171 | 1.6 | 1.6 | 0.00 | 0.03 | 0.03 | 35 | 1010.7 |
| 20260508231948 | 20 | 169 | 0.0 | 1.6 | 0.00 | 0.03 | 0.03 | 35 | 1010.8 |
| 20260508231445 | 20 | 179 | 0.0 | 1.6 | 0.00 | 0.03 | 0.03 | 31 | 1010.5 |
| 20260508230942 | 20 | 271 | 0.0 | 1.6 | 0.00 | 0.03 | 0.03 | 31 | 1010.5 |
| 20260508230438 | 20 | 350 | 0.0 | 6.4 | 0.00 | 0.03 | 0.03 | 31 | 1010.5 |
| 20260508225935 | 20 | 251 | 0.0 | 3.2 | 0.00 | 0.03 | 0.03 | 30 | 1010.6 |
| 20260508225432 | 21 | 316 | 0.0 | 1.6 | 0.00 | 0.03 | 0.03 | 28 | 1010.6 |
| 20260508224930 | 21 | 13 | 0.0 | 3.2 | 0.00 | 0.03 | 0.03 | 27 | 1010.4 |
| 20260508224427 | 21 | 233 | 0.0 | 3.2 | 0.00 | 0.03 | 0.03 | 26 | 1010.4 |
| 20260508223924 | 21 | 343 | 0.0 | 3.2 | 0.00 | 0.03 | 0.03 | 25 | 1010.6 |
| 20260508223422 | 22 | 274 | 1.6 | 3.2 | 0.00 | 0.03 | 0.03 | 28 | 1010.3 |
| 20260508222919 | 22 | 287 | 0.0 | 3.2 | 0.00 | 0.03 | 0.03 | 26 | 1010.3 |
| 20260508222417 | 22 | 9 | 4.8 | 4.8 | 0.00 | 0.03 | 0.03 | 26 | 1010.4 |
| 20260508221913 | 22 | 155 | 0.0 | 4.8 | 0.00 | 0.03 | 0.03 | 29 | 1010.3 |
| 20260508221408 | 22 | 216 | 0.0 | 3.2 | 0.00 | 0.03 | 0.03 | 27 | 1010.3 |
| 20260508220905 | 21 | 272 | 3.2 | 3.2 | 0.00 | 0.03 | 0.03 | 30 | 1010.4 |
| 20260508220402 | 21 | 353 | 0.0 | 3.2 | 0.00 | 0.03 | 0.03 | 31 | 1010.5 |
| 20260508215858 | 21 | 23 | 0.0 | 3.2 | 0.00 | 0.03 | 0.03 | 28 | 1010.4 |
| 20260508215355 | 21 | 267 | 0.0 | 4.8 | 0.00 | 0.03 | 0.03 | 28 | 1010.6 |
| 20260508214852 | 21 | 219 | 1.6 | 3.2 | 0.00 | 0.03 | 0.03 | 27 | 1010.6 |
| 20260508214349 | 21 | 172 | 1.6 | 3.2 | 0.00 | 0.03 | 0.03 | 30 | 1010.7 |
| 20260508213845 | 21 | 258 | 3.2 | 6.4 | 0.00 | 0.03 | 0.03 | 26 | 1010.6 |
| 20260508213343 | 22 | 255 | 0.0 | 4.8 | 0.00 | 0.03 | 0.03 | 26 | 1010.4 |